createdAt,value
2022-12-31T00:00:15.407Z,3.30
2022-12-31T00:02:42.607Z,3.30
2022-12-31T00:05:10.383Z,3.30
2022-12-31T00:10:04.908Z,3.40
2022-12-31T00:12:32.383Z,3.40
2022-12-31T00:14:59.564Z,3.40
2022-12-31T00:17:26.805Z,3.40
2022-12-31T00:19:53.989Z,3.40
2022-12-31T00:22:21.230Z,3.40
2022-12-31T00:24:48.446Z,3.40
2022-12-31T00:27:16.444Z,3.30
2022-12-31T00:29:43.595Z,3.30
2022-12-31T00:32:10.767Z,3.30
2022-12-31T00:34:37.853Z,3.20
2022-12-31T00:37:05.102Z,3.30
2022-12-31T00:39:32.303Z,3.20
2022-12-31T00:41:59.676Z,3.20
2022-12-31T00:44:26.847Z,3.20
2022-12-31T00:46:54.217Z,3.10
2022-12-31T00:49:21.429Z,3.20
2022-12-31T00:51:48.742Z,3.10
2022-12-31T00:54:15.935Z,3.20
2022-12-31T00:56:43.085Z,3.20
2022-12-31T00:59:10.304Z,3.20
2022-12-31T01:01:40.057Z,3.30
2022-12-31T01:04:13.520Z,3.30
2022-12-31T01:06:41.562Z,3.30
2022-12-31T01:09:09.649Z,3.30
2022-12-31T01:11:37.014Z,3.30
2022-12-31T01:14:10.582Z,3.30
2022-12-31T01:16:40.943Z,3.30
2022-12-31T01:19:19.402Z,3.30
2022-12-31T01:21:47.539Z,3.30
2022-12-31T01:24:14.954Z,3.30
2022-12-31T01:26:42.730Z,3.30
2022-12-31T01:29:11.523Z,3.30
2022-12-31T01:31:39.255Z,3.30
2022-12-31T01:34:07.293Z,3.20
2022-12-31T01:36:36.923Z,3.20
2022-12-31T01:39:06.920Z,3.10
2022-12-31T01:41:36.920Z,3.10
2022-12-31T01:44:13.265Z,3.00
2022-12-31T01:46:46.344Z,3.00
2022-12-31T01:49:28.268Z,2.90
2022-12-31T01:52:04.758Z,2.80
2022-12-31T01:54:36.738Z,2.80
2022-12-31T01:57:05.455Z,2.80
2022-12-31T01:59:35.714Z,2.80
2022-12-31T02:02:03.598Z,2.70
2022-12-31T02:04:30.871Z,2.70
2022-12-31T02:07:02.287Z,2.70
2022-12-31T02:09:30.923Z,2.70
2022-12-31T02:11:58.239Z,2.70
2022-12-31T02:14:38.033Z,2.70
2022-12-31T02:17:35.209Z,2.70
2022-12-31T02:20:35.877Z,2.70
2022-12-31T02:23:30.277Z,2.70
2022-12-31T02:26:23.644Z,2.70
2022-12-31T02:29:13.683Z,2.70
2022-12-31T02:31:50.476Z,2.60
2022-12-31T02:34:22.137Z,2.60
2022-12-31T02:36:53.013Z,2.60
2022-12-31T02:39:20.908Z,2.70
2022-12-31T02:41:50.231Z,2.60
2022-12-31T02:44:28.875Z,2.60
2022-12-31T02:46:55.938Z,2.60
2022-12-31T02:49:54.951Z,2.60
2022-12-31T02:52:40.937Z,2.60
2022-12-31T02:55:37.226Z,2.60
2022-12-31T02:58:48.253Z,2.50
2022-12-31T03:01:43.482Z,2.60
2022-12-31T03:04:31.048Z,2.60
2022-12-31T03:07:14.089Z,2.60
2022-12-31T03:09:41.593Z,2.60
2022-12-31T03:12:30.608Z,2.60
2022-12-31T03:14:58.316Z,2.50
2022-12-31T03:17:25.511Z,2.50
2022-12-31T03:20:11.160Z,2.50
2022-12-31T03:22:41.599Z,2.50
2022-12-31T03:25:33.577Z,2.50
2022-12-31T03:28:03.018Z,2.50
2022-12-31T03:30:31.012Z,2.50
2022-12-31T03:32:59.124Z,2.50
2022-12-31T03:35:28.564Z,2.50
2022-12-31T03:37:56.695Z,2.50
2022-12-31T03:40:26.055Z,2.50
2022-12-31T03:42:53.475Z,2.50
2022-12-31T03:45:21.115Z,2.50
2022-12-31T03:47:48.754Z,2.40
2022-12-31T03:50:17.556Z,2.40
2022-12-31T03:52:45.497Z,2.40
2022-12-31T03:55:13.512Z,2.40
2022-12-31T03:57:41.099Z,2.40
2022-12-31T04:00:12.797Z,2.40
2022-12-31T04:02:40.082Z,2.40
2022-12-31T04:05:08.293Z,2.40
2022-12-31T04:07:35.549Z,2.30
2022-12-31T04:10:04.515Z,2.30
2022-12-31T04:12:31.850Z,2.40
2022-12-31T04:14:59.284Z,2.30
2022-12-31T04:17:26.769Z,2.30
2022-12-31T04:19:54.873Z,2.30
2022-12-31T04:22:21.976Z,2.30
2022-12-31T04:24:49.190Z,2.40
2022-12-31T04:27:16.340Z,2.30
2022-12-31T04:29:43.435Z,2.40
2022-12-31T04:32:11.104Z,2.40
2022-12-31T04:34:38.359Z,2.40
2022-12-31T04:37:05.545Z,2.50
2022-12-31T04:39:33.029Z,2.40
2022-12-31T04:42:00.148Z,2.40
2022-12-31T04:44:27.219Z,2.50
2022-12-31T04:46:54.483Z,2.50
2022-12-31T04:49:21.644Z,2.50
2022-12-31T04:51:48.873Z,2.50
2022-12-31T04:54:16.061Z,2.50
2022-12-31T04:56:43.255Z,2.50
2022-12-31T04:59:10.802Z,2.50
2022-12-31T05:01:39.753Z,2.50
2022-12-31T05:04:06.980Z,2.60
2022-12-31T05:06:34.171Z,2.60
2022-12-31T05:09:01.442Z,2.60
2022-12-31T05:11:28.669Z,2.60
2022-12-31T05:13:55.867Z,2.60
2022-12-31T05:16:23.124Z,2.60
2022-12-31T05:18:50.391Z,2.60
2022-12-31T05:21:21.434Z,2.60
2022-12-31T05:23:49.283Z,2.60
2022-12-31T05:26:16.958Z,2.60
2022-12-31T05:28:44.132Z,2.70
2022-12-31T05:31:11.384Z,2.70
2022-12-31T05:33:38.590Z,2.80
2022-12-31T05:36:06.109Z,2.80
2022-12-31T05:38:33.565Z,2.80
2022-12-31T05:41:06.409Z,2.80
2022-12-31T05:43:33.979Z,2.80
2022-12-31T05:46:03.051Z,2.80
2022-12-31T05:48:31.151Z,2.80
2022-12-31T05:50:58.939Z,2.70
2022-12-31T05:53:26.141Z,2.80
2022-12-31T05:55:53.377Z,2.70
2022-12-31T05:58:20.669Z,2.70
2022-12-31T06:00:47.813Z,2.60
2022-12-31T06:03:15.147Z,2.60
2022-12-31T06:05:43.437Z,2.60
2022-12-31T06:08:11.647Z,2.60
2022-12-31T06:10:39.487Z,2.60
2022-12-31T06:13:07.080Z,2.70
2022-12-31T06:15:37.015Z,2.80
2022-12-31T06:18:04.233Z,2.80
2022-12-31T06:20:31.571Z,2.80
2022-12-31T06:22:58.902Z,2.90
2022-12-31T06:25:26.356Z,3.00
2022-12-31T06:27:53.613Z,3.00
2022-12-31T06:30:20.896Z,3.00
2022-12-31T06:32:48.070Z,3.10
2022-12-31T06:35:15.460Z,3.20
2022-12-31T06:37:42.779Z,3.20
2022-12-31T06:40:10.785Z,3.10
2022-12-31T06:42:37.961Z,3.10
2022-12-31T06:45:05.639Z,3.10
2022-12-31T06:47:33.035Z,3.00
2022-12-31T06:50:00.302Z,3.00
2022-12-31T06:52:27.558Z,3.00
2022-12-31T06:54:54.985Z,3.00
2022-12-31T06:57:23.743Z,2.90
2022-12-31T06:59:51.565Z,2.90
2022-12-31T07:02:27.775Z,2.90
2022-12-31T07:05:10.289Z,2.90
2022-12-31T07:07:46.342Z,2.90
2022-12-31T07:10:32.245Z,2.90
2022-12-31T07:13:02.172Z,2.90
2022-12-31T07:15:29.343Z,2.90
2022-12-31T07:18:10.547Z,2.90
2022-12-31T07:20:37.910Z,2.90
2022-12-31T07:23:05.236Z,3.00
2022-12-31T07:25:34.175Z,3.00
2022-12-31T07:28:10.144Z,3.00
2022-12-31T07:31:12.115Z,3.00
2022-12-31T07:34:01.967Z,3.00
2022-12-31T07:36:50.878Z,3.00
2022-12-31T07:39:28.819Z,3.10
2022-12-31T07:42:15.652Z,3.10
2022-12-31T07:44:48.660Z,3.10
2022-12-31T07:47:27.394Z,3.10
2022-12-31T07:49:55.368Z,3.20
2022-12-31T07:52:23.181Z,3.10
2022-12-31T07:54:50.722Z,3.10
2022-12-31T07:57:20.657Z,3.20
2022-12-31T08:00:07.602Z,3.20
2022-12-31T08:02:56.330Z,3.30
2022-12-31T08:05:37.065Z,3.30
2022-12-31T08:08:22.511Z,3.40
2022-12-31T08:11:02.714Z,3.40
2022-12-31T08:13:30.620Z,3.40
2022-12-31T08:15:58.037Z,3.40
2022-12-31T08:18:25.352Z,3.40
2022-12-31T08:21:10.293Z,3.50
2022-12-31T08:23:44.023Z,3.50
2022-12-31T08:26:19.591Z,3.50
2022-12-31T08:29:08.039Z,3.50
2022-12-31T08:31:40.041Z,3.60
2022-12-31T08:34:19.083Z,3.50
2022-12-31T08:36:56.726Z,3.60
2022-12-31T08:39:28.517Z,3.60
2022-12-31T08:41:58.684Z,3.60
2022-12-31T08:44:42.439Z,3.60
2022-12-31T08:47:49.403Z,3.50
2022-12-31T08:50:18.385Z,3.50
2022-12-31T08:52:46.401Z,3.50
2022-12-31T08:55:17.920Z,3.50
2022-12-31T08:58:12.207Z,3.50
2022-12-31T09:00:39.432Z,3.50
2022-12-31T09:03:43.957Z,3.50
2022-12-31T09:06:16.978Z,3.50
2022-12-31T09:09:16.189Z,3.50
2022-12-31T09:12:04.198Z,3.50
2022-12-31T09:14:43.600Z,3.50
2022-12-31T09:17:16.620Z,3.50
2022-12-31T09:19:43.790Z,3.50
2022-12-31T09:22:11.704Z,3.60
2022-12-31T09:24:39.126Z,3.60
2022-12-31T09:27:27.453Z,3.50
2022-12-31T09:30:07.069Z,3.60
2022-12-31T09:33:01.899Z,3.60
2022-12-31T09:35:35.252Z,3.60
2022-12-31T09:38:26.707Z,3.60
2022-12-31T09:41:12.686Z,3.60
2022-12-31T09:44:17.306Z,3.60
2022-12-31T09:47:27.640Z,3.60
2022-12-31T09:50:11.364Z,3.70
2022-12-31T09:53:08.921Z,3.70
2022-12-31T09:55:48.630Z,3.70
2022-12-31T09:58:21.874Z,3.70
2022-12-31T10:00:56.988Z,3.70
2022-12-31T10:03:39.549Z,3.70
2022-12-31T10:06:18.633Z,3.70
2022-12-31T10:09:06.013Z,3.70
2022-12-31T10:12:10.979Z,3.70
2022-12-31T10:14:47.751Z,3.70
2022-12-31T10:17:45.726Z,3.70
2022-12-31T10:20:35.916Z,3.70
2022-12-31T10:23:10.727Z,3.80
2022-12-31T10:25:59.599Z,3.80
2022-12-31T10:28:50.285Z,3.80
2022-12-31T10:32:01.642Z,3.80
2022-12-31T10:34:59.066Z,3.80
2022-12-31T10:38:03.415Z,3.80
2022-12-31T10:40:42.807Z,3.80
2022-12-31T10:43:34.975Z,3.80
2022-12-31T10:46:05.034Z,3.90
2022-12-31T10:48:52.011Z,3.90
2022-12-31T10:51:47.133Z,3.90
2022-12-31T10:54:34.034Z,3.90
2022-12-31T10:57:19.299Z,3.90
2022-12-31T11:00:12.782Z,4.00
2022-12-31T11:03:18.337Z,4.00
2022-12-31T11:06:09.689Z,4.00
2022-12-31T11:09:14.594Z,4.00
2022-12-31T11:11:50.743Z,4.00
2022-12-31T11:14:33.128Z,4.00
2022-12-31T11:17:29.202Z,4.00
2022-12-31T11:20:15.576Z,4.00
2022-12-31T11:23:03.127Z,4.00
2022-12-31T11:25:34.506Z,4.00
2022-12-31T11:28:32.466Z,4.00
2022-12-31T11:31:21.705Z,4.10
2022-12-31T11:34:16.499Z,4.10
2022-12-31T11:37:14.447Z,4.10
2022-12-31T11:40:09.289Z,4.10
2022-12-31T11:42:48.420Z,4.10
2022-12-31T11:45:36.185Z,4.10
2022-12-31T11:48:32.007Z,4.20
2022-12-31T11:51:36.894Z,4.20
2022-12-31T11:54:15.370Z,4.20
2022-12-31T11:56:50.595Z,4.20
2022-12-31T11:59:19.876Z,4.20
2022-12-31T12:01:58.269Z,4.20
2022-12-31T12:04:25.653Z,4.20
2022-12-31T12:06:53.599Z,4.20
2022-12-31T12:09:30.428Z,4.30
2022-12-31T12:12:03.906Z,4.30
2022-12-31T12:14:42.827Z,4.30
2022-12-31T12:17:32.547Z,4.30
2022-12-31T12:20:06.049Z,4.30
2022-12-31T12:22:33.294Z,4.30
2022-12-31T12:25:06.702Z,4.30
2022-12-31T12:27:36.215Z,4.30
2022-12-31T12:30:20.071Z,4.30
2022-12-31T12:32:58.197Z,4.30
2022-12-31T12:35:32.096Z,4.40
2022-12-31T12:38:05.325Z,4.40
2022-12-31T12:40:34.777Z,4.40
2022-12-31T12:43:03.631Z,4.40
2022-12-31T12:45:51.430Z,4.50
2022-12-31T12:48:40.092Z,4.50
2022-12-31T12:51:20.678Z,4.50
2022-12-31T12:53:50.812Z,4.50
2022-12-31T12:56:34.064Z,4.50
2022-12-31T12:59:19.791Z,4.50
2022-12-31T13:02:04.772Z,4.50
2022-12-31T13:04:51.104Z,4.50
2022-12-31T13:07:56.327Z,4.50
2022-12-31T13:10:23.463Z,4.50
2022-12-31T13:13:29.003Z,4.60
2022-12-31T13:16:26.792Z,4.60
2022-12-31T13:19:12.965Z,4.60
2022-12-31T13:21:44.081Z,4.60
2022-12-31T13:24:39.548Z,4.60
2022-12-31T13:27:06.791Z,4.60
2022-12-31T13:29:36.366Z,4.70
2022-12-31T13:32:07.871Z,4.70
2022-12-31T13:34:40.145Z,4.70
2022-12-31T13:37:18.653Z,4.60
2022-12-31T13:39:49.164Z,4.60
2022-12-31T13:42:25.061Z,4.60
2022-12-31T13:44:53.989Z,4.60
2022-12-31T13:47:24.939Z,4.60
2022-12-31T13:50:03.039Z,4.60
2022-12-31T13:52:45.965Z,4.60
2022-12-31T13:55:33.850Z,4.70
2022-12-31T13:58:14.604Z,4.70
2022-12-31T14:00:56.826Z,4.70
2022-12-31T14:03:59.908Z,4.60
2022-12-31T14:06:39.121Z,4.60
2022-12-31T14:09:06.897Z,4.60
2022-12-31T14:11:43.144Z,4.60
2022-12-31T14:14:32.884Z,4.70
2022-12-31T14:17:18.373Z,4.70
2022-12-31T14:20:00.633Z,4.70
2022-12-31T14:23:02.998Z,4.70
2022-12-31T14:25:38.594Z,4.70
2022-12-31T14:28:10.236Z,4.70
2022-12-31T14:30:41.433Z,4.80
2022-12-31T14:33:24.384Z,4.80
2022-12-31T14:36:33.225Z,4.80
2022-12-31T14:39:14.127Z,4.80
2022-12-31T14:42:10.652Z,4.80
2022-12-31T14:45:08.692Z,4.80
2022-12-31T14:48:21.896Z,4.80
2022-12-31T14:50:49.825Z,4.80
2022-12-31T14:53:27.913Z,4.80
2022-12-31T14:56:04.314Z,4.80
2022-12-31T14:58:42.899Z,4.80
2022-12-31T15:01:16.297Z,4.80
2022-12-31T15:03:46.200Z,4.90
2022-12-31T15:06:25.562Z,4.80
2022-12-31T15:09:19.945Z,4.80
2022-12-31T15:12:08.305Z,4.80
2022-12-31T15:14:53.671Z,4.80
2022-12-31T15:17:26.561Z,4.80
2022-12-31T15:20:17.272Z,4.70
2022-12-31T15:22:49.321Z,4.70
2022-12-31T15:25:36.766Z,4.70
2022-12-31T15:28:22.403Z,4.70
2022-12-31T15:30:50.734Z,4.80
2022-12-31T15:33:36.714Z,4.70
2022-12-31T15:36:25.365Z,4.70
2022-12-31T15:39:05.406Z,4.80
2022-12-31T15:42:10.395Z,4.80
2022-12-31T15:44:59.445Z,4.80
2022-12-31T15:47:30.003Z,4.80
2022-12-31T15:50:04.234Z,4.80
2022-12-31T15:52:50.521Z,4.80
2022-12-31T15:55:42.099Z,4.80
2022-12-31T15:58:16.885Z,4.80
2022-12-31T16:01:05.643Z,4.80
2022-12-31T16:03:33.610Z,4.80
2022-12-31T16:06:15.678Z,4.80
2022-12-31T16:08:48.759Z,4.90
2022-12-31T16:11:17.433Z,4.90
2022-12-31T16:13:50.894Z,4.90
2022-12-31T16:16:33.312Z,4.90
2022-12-31T16:19:01.267Z,4.90
2022-12-31T16:21:37.285Z,4.90
2022-12-31T16:24:24.599Z,4.90
2022-12-31T16:26:55.050Z,4.90
2022-12-31T16:29:24.146Z,4.90
2022-12-31T16:31:55.962Z,5.00
2022-12-31T16:34:28.471Z,4.90
2022-12-31T16:36:59.927Z,5.00
2022-12-31T16:39:33.951Z,5.00
2022-12-31T16:42:20.030Z,5.00
2022-12-31T16:44:49.110Z,5.00
2022-12-31T16:47:35.174Z,5.00
2022-12-31T16:50:05.215Z,5.10
2022-12-31T16:52:44.004Z,5.10
2022-12-31T16:55:16.943Z,5.10
2022-12-31T16:57:48.599Z,5.10
2022-12-31T17:00:18.432Z,5.10
2022-12-31T17:02:56.014Z,5.00
2022-12-31T17:05:25.657Z,5.00
2022-12-31T17:07:53.287Z,5.10
2022-12-31T17:10:24.127Z,5.10
2022-12-31T17:15:45.666Z,5.10
2022-12-31T17:18:22.963Z,5.10
2022-12-31T17:20:55.017Z,5.10
2022-12-31T17:23:31.969Z,5.10
2022-12-31T17:26:10.210Z,5.10
2022-12-31T17:28:46.882Z,5.10
2022-12-31T17:31:33.390Z,5.10
2022-12-31T17:34:12.758Z,5.10
2022-12-31T17:36:56.361Z,5.10
2022-12-31T17:39:24.749Z,5.10
2022-12-31T17:41:55.409Z,5.10
2022-12-31T17:44:27.024Z,5.20
2022-12-31T17:46:54.620Z,5.10
2022-12-31T17:49:27.788Z,5.20
2022-12-31T17:51:54.861Z,5.20
2022-12-31T17:54:21.988Z,5.20
2022-12-31T17:56:49.996Z,5.20
2022-12-31T17:59:29.872Z,5.20
2022-12-31T18:02:05.381Z,5.20
2022-12-31T18:04:32.854Z,5.20
2022-12-31T18:06:59.935Z,5.30
2022-12-31T18:09:27.037Z,5.30
2022-12-31T18:11:56.922Z,5.30
2022-12-31T18:14:28.659Z,5.30
2022-12-31T18:16:55.773Z,5.40
2022-12-31T18:19:54.310Z,5.40
2022-12-31T18:22:16.370Z,5.40
2022-12-31T18:24:44.174Z,5.40
2022-12-31T18:27:19.167Z,5.40
2022-12-31T18:29:46.586Z,5.40
2022-12-31T18:32:23.729Z,5.40
2022-12-31T18:34:51.618Z,5.40
2022-12-31T18:37:22.264Z,5.50
2022-12-31T18:39:51.035Z,5.50
2022-12-31T18:42:19.965Z,5.50
2022-12-31T18:44:47.467Z,5.50
2022-12-31T18:47:17.006Z,5.50
2022-12-31T18:49:48.824Z,5.50
2022-12-31T18:52:21.817Z,5.40
2022-12-31T18:54:49.718Z,5.50
2022-12-31T18:57:16.902Z,5.50
2022-12-31T18:59:44.206Z,5.50
2022-12-31T19:02:18.952Z,5.50
2022-12-31T19:04:46.809Z,5.60
2022-12-31T19:07:13.996Z,5.60
2022-12-31T19:09:46.113Z,5.50
2022-12-31T19:12:14.963Z,5.60
2022-12-31T19:14:42.363Z,5.50
2022-12-31T19:19:35.588Z,5.60
2022-12-31T19:22:03.035Z,5.60
2022-12-31T19:24:30.798Z,5.60
2022-12-31T19:26:58.353Z,5.60
2022-12-31T19:29:27.525Z,5.60
2022-12-31T19:31:55.426Z,5.60
2022-12-31T19:34:23.018Z,5.60
2022-12-31T19:36:50.237Z,5.70
2022-12-31T19:39:20.152Z,5.70
2022-12-31T19:41:54.777Z,5.70
2022-12-31T19:44:26.203Z,5.70
2022-12-31T19:46:53.677Z,5.70
2022-12-31T19:49:20.934Z,5.70
2022-12-31T19:51:48.269Z,5.70
2022-12-31T19:54:15.749Z,5.70
2022-12-31T19:56:43.596Z,5.80
2022-12-31T19:59:11.334Z,5.80
2022-12-31T20:01:39.103Z,5.80
2022-12-31T20:04:06.843Z,5.80
2022-12-31T20:06:34.235Z,5.80
2022-12-31T20:09:03.263Z,5.80
2022-12-31T20:11:30.518Z,5.80
2022-12-31T20:13:58.069Z,5.80
2022-12-31T20:16:29.980Z,5.90
2022-12-31T20:18:57.585Z,5.90
2022-12-31T20:21:27.346Z,5.90
2022-12-31T20:23:55.418Z,5.90
2022-12-31T20:26:24.932Z,5.90
2022-12-31T20:28:53.400Z,5.90
2022-12-31T20:31:24.144Z,5.90
2022-12-31T20:33:53.888Z,5.90
2022-12-31T20:36:21.710Z,6.00
2022-12-31T20:38:49.023Z,6.00
2022-12-31T20:41:19.336Z,5.90
2022-12-31T20:43:47.411Z,6.00
2022-12-31T20:46:19.203Z,5.90
2022-12-31T20:48:47.704Z,5.90
2022-12-31T20:51:16.520Z,6.00
2022-12-31T20:53:56.310Z,6.00
2022-12-31T20:56:25.426Z,6.00
2022-12-31T20:58:52.539Z,6.00
2022-12-31T21:01:20.660Z,6.00
2022-12-31T21:04:06.179Z,6.00
2022-12-31T21:06:35.071Z,6.10
2022-12-31T21:09:04.941Z,6.20
2022-12-31T21:11:50.879Z,6.20
2022-12-31T21:14:18.188Z,6.20
2022-12-31T21:16:45.508Z,6.20
2022-12-31T21:19:12.702Z,6.20
2022-12-31T21:21:40.119Z,6.20
2022-12-31T21:24:07.498Z,6.20
2022-12-31T21:26:35.335Z,6.20
2022-12-31T21:29:02.828Z,6.20
2022-12-31T21:31:30.206Z,6.20
2022-12-31T21:33:57.528Z,6.30
2022-12-31T21:36:24.971Z,6.30
2022-12-31T21:38:52.433Z,6.30
2022-12-31T21:41:38.141Z,6.30
2022-12-31T21:44:05.371Z,6.30
2022-12-31T21:46:32.687Z,6.30
2022-12-31T21:49:01.323Z,6.30
2022-12-31T21:51:29.602Z,6.30
2022-12-31T21:53:57.447Z,6.40
2022-12-31T21:56:25.201Z,6.30
2022-12-31T21:59:17.036Z,6.30
2022-12-31T22:02:03.076Z,6.30
2022-12-31T22:07:18.109Z,6.40
2022-12-31T22:09:45.430Z,6.40
2022-12-31T22:12:12.731Z,6.40
2022-12-31T22:14:39.908Z,6.50
2022-12-31T22:17:27.340Z,6.50
2022-12-31T22:22:42.280Z,6.50
2022-12-31T22:25:10.136Z,6.50
2022-12-31T22:27:37.342Z,6.50
2022-12-31T22:30:05.073Z,6.60
2022-12-31T22:32:32.368Z,6.60
2022-12-31T22:34:59.623Z,6.60
2022-12-31T22:37:55.651Z,6.70
2022-12-31T22:40:14.336Z,6.60
2022-12-31T22:42:41.557Z,6.60
2022-12-31T22:45:09.695Z,6.70
2022-12-31T22:47:36.941Z,6.70
2022-12-31T22:50:04.407Z,6.80
2022-12-31T22:52:31.745Z,6.80
2022-12-31T22:54:58.939Z,6.70
2022-12-31T22:57:26.107Z,6.90
2022-12-31T22:59:53.316Z,6.80
2022-12-31T23:02:20.600Z,6.70
2022-12-31T23:04:47.812Z,6.80
2022-12-31T23:07:15.035Z,6.80
2022-12-31T23:10:00.528Z,6.80
2022-12-31T23:12:27.765Z,6.80
2022-12-31T23:15:13.371Z,6.80
2022-12-31T23:17:59.007Z,6.90
2022-12-31T23:20:45.349Z,6.90
2022-12-31T23:23:16.635Z,6.90
2022-12-31T23:25:49.559Z,6.90
2022-12-31T23:28:24.850Z,7.00
2022-12-31T23:30:52.893Z,6.90
2022-12-31T23:33:25.169Z,7.00
2022-12-31T23:36:06.001Z,7.00
2022-12-31T23:38:33.164Z,7.00
2022-12-31T23:41:00.338Z,7.00
2022-12-31T23:43:27.558Z,7.00
2022-12-31T23:45:54.929Z,7.00
2022-12-31T23:48:22.243Z,7.00
2022-12-31T23:50:53.880Z,7.00
2022-12-31T23:53:22.918Z,7.00
2022-12-31T23:55:50.412Z,7.00
2022-12-31T23:58:17.886Z,7.00
